createdAt,value
2018-09-25T00:01:26.412Z,99.90
2018-09-25T00:04:01.134Z,99.90
2018-09-25T00:06:35.855Z,99.90
2018-09-25T00:09:13.207Z,99.90
2018-09-25T00:11:47.983Z,99.90
2018-09-25T00:14:22.426Z,99.90
2018-09-25T00:16:56.389Z,99.90
2018-09-25T00:19:30.581Z,99.90
2018-09-25T00:22:04.718Z,99.90
2018-09-25T00:24:39.249Z,99.90
2018-09-25T00:27:13.194Z,99.90
2018-09-25T00:29:47.385Z,99.90
2018-09-25T00:32:21.284Z,99.90
2018-09-25T00:34:56.179Z,99.90
2018-09-25T00:37:30.145Z,99.90
2018-09-25T00:40:04.058Z,99.90
2018-09-25T00:42:37.986Z,99.90
2018-09-25T00:45:12.887Z,99.90
2018-09-25T00:47:46.790Z,99.90
2018-09-25T00:50:20.790Z,99.90
2018-09-25T00:52:55.061Z,99.90
2018-09-25T00:55:29.222Z,99.90
2018-09-25T00:58:03.650Z,99.90
2018-09-25T01:00:38.109Z,99.90
2018-09-25T01:03:12.259Z,99.90
2018-09-25T01:08:43.016Z,99.90
2018-09-25T01:11:17.068Z,99.90
2018-09-25T01:13:50.989Z,99.90
2018-09-25T01:16:25.626Z,99.90
2018-09-25T01:19:00.774Z,99.90
2018-09-25T01:21:34.761Z,99.90
2018-09-25T01:24:08.596Z,99.90
2018-09-25T01:26:42.535Z,99.90
2018-09-25T01:29:16.707Z,99.90
2018-09-25T01:31:50.708Z,99.90
2018-09-25T01:34:25.156Z,99.90
2018-09-25T01:36:59.490Z,99.90
2018-09-25T01:39:34.365Z,99.90
2018-09-25T01:42:08.956Z,99.90
2018-09-25T01:44:43.022Z,99.90
2018-09-25T01:47:16.976Z,99.90
2018-09-25T01:49:51.524Z,99.90
2018-09-25T01:52:25.506Z,99.90
2018-09-25T01:54:59.478Z,99.90
2018-09-25T01:57:33.851Z,99.90
2018-09-25T02:00:08.183Z,99.90
2018-09-25T02:02:42.051Z,99.90
2018-09-25T02:05:15.948Z,99.90
2018-09-25T02:07:50.270Z,99.90
2018-09-25T02:10:25.645Z,99.90
2018-09-25T02:12:59.666Z,99.90
2018-09-25T02:15:33.690Z,99.90
2018-09-25T02:18:07.883Z,99.90
2018-09-25T02:20:43.001Z,99.90
2018-09-25T02:23:17.449Z,99.90
2018-09-25T02:25:51.692Z,99.90
2018-09-25T02:28:25.919Z,99.90
2018-09-25T02:31:01.031Z,99.90
2018-09-25T02:33:35.244Z,99.90
2018-09-25T02:36:09.840Z,99.90
2018-09-25T02:38:44.097Z,99.90
2018-09-25T02:41:19.569Z,99.90
2018-09-25T02:43:53.525Z,99.90
2018-09-25T02:46:27.453Z,99.90
2018-09-25T02:49:01.792Z,99.90
2018-09-25T02:51:37.178Z,99.90
2018-09-25T02:54:11.467Z,99.90
2018-09-25T02:56:45.373Z,99.90
2018-09-25T02:59:19.298Z,99.90
2018-09-25T03:01:54.447Z,99.90
2018-09-25T03:04:28.651Z,99.90
2018-09-25T03:07:02.666Z,99.90
2018-09-25T03:09:36.670Z,99.90
2018-09-25T03:12:11.481Z,99.90
2018-09-25T03:14:45.840Z,99.90
2018-09-25T03:17:20.114Z,99.90
2018-09-25T03:19:54.025Z,99.90
2018-09-25T03:22:28.691Z,99.90
2018-09-25T03:25:02.659Z,99.90
2018-09-25T03:27:36.977Z,99.90
2018-09-25T03:30:11.762Z,99.90
2018-09-25T03:32:45.841Z,99.90
2018-09-25T03:35:19.793Z,99.90
2018-09-25T03:37:55.368Z,99.90
2018-09-25T03:40:29.316Z,99.90
2018-09-25T03:43:03.965Z,99.90
2018-09-25T03:45:38.622Z,99.90
2018-09-25T03:48:12.662Z,99.90
2018-09-25T03:50:47.325Z,99.90
2018-09-25T03:53:22.278Z,99.90
2018-09-25T03:55:56.277Z,99.90
2018-09-25T03:58:30.701Z,99.90
2018-09-25T04:01:04.737Z,99.90
2018-09-25T04:03:39.444Z,99.90
2018-09-25T04:06:13.858Z,99.90
2018-09-25T04:08:48.411Z,99.90
2018-09-25T04:11:22.271Z,99.90
2018-09-25T04:13:57.272Z,99.90
2018-09-25T04:16:31.286Z,99.90
2018-09-25T04:19:05.194Z,99.90
2018-09-25T04:21:39.123Z,99.90
2018-09-25T04:24:14.454Z,99.90
2018-09-25T04:26:48.456Z,99.90
2018-09-25T04:29:23.352Z,99.90
2018-09-25T04:31:58.259Z,99.90
2018-09-25T04:34:33.674Z,99.90
2018-09-25T04:37:08.457Z,99.90
2018-09-25T04:39:42.684Z,99.90
2018-09-25T04:42:17.727Z,99.90
2018-09-25T04:44:52.440Z,99.90
2018-09-25T04:47:26.909Z,99.90
2018-09-25T04:50:00.861Z,99.90
2018-09-25T04:52:34.896Z,99.90
2018-09-25T04:55:11.109Z,99.90
2018-09-25T04:57:45.475Z,99.90
2018-09-25T05:00:22.081Z,99.90
2018-09-25T05:02:56.006Z,99.90
2018-09-25T05:05:31.240Z,99.90
2018-09-25T05:08:06.526Z,99.90
2018-09-25T05:10:41.860Z,99.90
2018-09-25T05:13:16.285Z,99.90
2018-09-25T05:15:50.516Z,99.90
2018-09-25T05:18:24.827Z,99.90
2018-09-25T05:20:59.124Z,99.90
2018-09-25T05:23:33.109Z,99.90
2018-09-25T05:26:09.672Z,99.90
2018-09-25T05:28:43.783Z,99.90
2018-09-25T05:31:18.179Z,99.90
2018-09-25T05:33:52.490Z,99.90
2018-09-25T05:36:27.829Z,99.90
2018-09-25T05:39:02.078Z,99.90
2018-09-25T05:41:37.432Z,99.90
2018-09-25T05:44:11.597Z,99.90
2018-09-25T05:46:46.641Z,99.90
2018-09-25T05:49:20.683Z,99.90
2018-09-25T05:51:55.069Z,99.90
2018-09-25T05:54:29.227Z,99.90
2018-09-25T05:57:04.221Z,99.90
2018-09-25T05:59:38.459Z,99.90
2018-09-25T06:02:12.571Z,99.90
2018-09-25T06:04:46.817Z,99.90
2018-09-25T06:07:21.294Z,99.90
2018-09-25T06:09:55.198Z,99.90
2018-09-25T06:12:29.096Z,99.90
2018-09-25T06:15:03.006Z,99.90
2018-09-25T06:17:37.694Z,99.90
2018-09-25T06:20:11.597Z,99.90
2018-09-25T06:22:45.541Z,99.90
2018-09-25T06:25:19.821Z,99.90
2018-09-25T06:27:55.031Z,99.90
2018-09-25T06:30:29.284Z,99.90
2018-09-25T06:33:03.426Z,99.90
2018-09-25T06:35:37.758Z,99.90
2018-09-25T06:38:12.541Z,99.90
2018-09-25T06:40:47.052Z,99.90
2018-09-25T06:43:21.110Z,99.90
2018-09-25T06:45:55.148Z,99.90
2018-09-25T06:48:29.870Z,99.90
2018-09-25T06:51:03.861Z,99.90
2018-09-25T06:53:37.705Z,99.90
2018-09-25T06:56:11.922Z,99.90
2018-09-25T06:58:47.130Z,99.90
2018-09-25T07:01:21.358Z,99.90
2018-09-25T07:03:55.265Z,99.90
2018-09-25T07:06:29.515Z,99.90
2018-09-25T07:09:04.825Z,99.90
2018-09-25T07:11:39.590Z,99.90
2018-09-25T07:14:14.000Z,99.90
2018-09-25T07:16:48.457Z,99.90
2018-09-25T07:19:22.807Z,99.90
2018-09-25T07:21:56.844Z,99.90
2018-09-25T07:24:31.153Z,99.90
2018-09-25T07:27:05.285Z,99.90
2018-09-25T07:29:39.874Z,99.90
2018-09-25T07:32:13.869Z,99.90
2018-09-25T07:34:47.797Z,99.90
2018-09-25T07:37:21.714Z,99.90
2018-09-25T07:39:56.597Z,99.90
2018-09-25T07:42:30.493Z,99.90
2018-09-25T07:45:04.797Z,99.90
2018-09-25T07:47:38.841Z,99.90
2018-09-25T07:50:14.467Z,99.90
2018-09-25T07:52:48.433Z,99.90
2018-09-25T07:55:22.488Z,99.90
2018-09-25T07:57:56.879Z,99.90
2018-09-25T08:00:32.221Z,99.90
2018-09-25T08:03:06.367Z,99.90
2018-09-25T08:05:41.067Z,99.90
2018-09-25T08:08:14.980Z,99.90
2018-09-25T08:10:49.952Z,99.90
2018-09-25T08:13:24.207Z,99.90
2018-09-25T08:15:58.159Z,99.90
2018-09-25T08:18:32.019Z,99.90
2018-09-25T08:21:06.791Z,99.90
2018-09-25T08:23:40.789Z,99.90
2018-09-25T08:26:14.871Z,99.90
2018-09-25T08:28:49.112Z,99.90
2018-09-25T08:31:23.334Z,99.90
2018-09-25T08:33:57.262Z,99.90
2018-09-25T08:36:31.497Z,99.90
2018-09-25T08:40:08.380Z,99.90
2018-09-25T08:42:42.734Z,99.90
2018-09-25T08:45:17.127Z,99.90
2018-09-25T08:47:51.536Z,99.90
2018-09-25T08:50:25.717Z,99.90
2018-09-25T08:52:59.649Z,99.90
2018-09-25T08:55:33.550Z,99.90
2018-09-25T08:58:07.983Z,99.90
2018-09-25T09:00:41.878Z,99.90
2018-09-25T09:03:15.797Z,99.90
2018-09-25T09:05:49.830Z,99.90
2018-09-25T09:08:24.402Z,99.90
2018-09-25T09:10:58.751Z,99.90
2018-09-25T09:13:33.297Z,99.90
2018-09-25T09:16:07.458Z,99.90
2018-09-25T09:18:41.964Z,99.90
2018-09-25T09:21:16.546Z,99.90
2018-09-25T09:23:51.436Z,99.90
2018-09-25T09:26:25.824Z,99.90
2018-09-25T09:29:00.757Z,99.90
2018-09-25T09:31:34.616Z,99.90
2018-09-25T09:34:08.897Z,99.90
2018-09-25T09:36:43.052Z,99.90
2018-09-25T09:39:18.130Z,99.90
2018-09-25T09:42:00.130Z,99.90
2018-09-25T09:44:34.120Z,99.90
2018-09-25T09:47:08.386Z,99.60
2018-09-25T09:49:43.384Z,99.10
2018-09-25T09:52:17.581Z,98.50
2018-09-25T09:54:51.595Z,97.70
2018-09-25T09:57:25.504Z,98.00
2018-09-25T09:59:59.921Z,98.00
2018-09-25T10:02:34.494Z,98.10
2018-09-25T10:05:08.898Z,97.20
2018-09-25T10:07:42.794Z,96.70
2018-09-25T10:10:17.737Z,96.20
2018-09-25T10:12:51.617Z,95.90
2018-09-25T10:15:25.849Z,95.60
2018-09-25T10:17:59.770Z,95.30
2018-09-25T10:20:33.731Z,95.00
2018-09-25T10:23:07.864Z,94.50
2018-09-25T10:25:42.208Z,94.70
2018-09-25T10:28:16.472Z,94.90
2018-09-25T10:30:51.172Z,94.20
2018-09-25T10:33:25.737Z,94.00
2018-09-25T10:35:59.841Z,93.10
2018-09-25T10:38:34.128Z,92.90
2018-09-25T10:41:08.754Z,92.50
2018-09-25T10:43:43.060Z,92.30
2018-09-25T10:46:17.250Z,91.70
2018-09-25T10:48:51.253Z,91.90
2018-09-25T10:51:25.397Z,92.10
2018-09-25T10:53:59.625Z,91.00
2018-09-25T10:56:33.558Z,90.50
2018-09-25T10:59:07.444Z,89.70
2018-09-25T11:01:41.785Z,89.70
2018-09-25T11:04:15.700Z,89.00
2018-09-25T11:06:49.724Z,89.50
2018-09-25T11:09:55.791Z,89.30
2018-09-25T11:12:30.377Z,90.00
2018-09-25T11:15:04.482Z,90.10
2018-09-25T11:17:38.656Z,89.90
2018-09-25T11:20:13.177Z,90.50
2018-09-25T11:22:47.528Z,89.70
2018-09-25T11:25:22.372Z,83.90
2018-09-25T11:27:56.473Z,85.50
2018-09-25T11:30:31.887Z,84.70
2018-09-25T11:33:05.821Z,82.80
2018-09-25T11:35:39.811Z,83.10
2018-09-25T11:38:13.985Z,82.80
2018-09-25T11:40:48.507Z,83.20
2018-09-25T11:43:22.994Z,83.90
2018-09-25T11:45:58.208Z,82.80
2018-09-25T11:48:32.270Z,82.40
2018-09-25T11:51:07.185Z,78.80
2018-09-25T11:53:41.058Z,77.30
2018-09-25T11:56:14.920Z,77.40
2018-09-25T11:58:49.490Z,75.90
2018-09-25T12:01:23.934Z,74.80
2018-09-25T12:03:57.848Z,75.50
2018-09-25T12:06:32.018Z,70.40
2018-09-25T12:09:06.293Z,68.20
2018-09-25T12:11:41.388Z,68.70
2018-09-25T12:14:15.381Z,68.60
2018-09-25T12:16:49.314Z,66.20
2018-09-25T12:19:23.246Z,64.60
2018-09-25T12:21:58.819Z,65.10
2018-09-25T12:24:33.575Z,61.80
2018-09-25T12:27:07.863Z,59.90
2018-09-25T12:29:42.337Z,61.50
2018-09-25T12:32:20.172Z,60.00
2018-09-25T12:34:54.334Z,59.40
2018-09-25T12:37:28.748Z,58.40
2018-09-25T12:40:02.775Z,57.60
2018-09-25T12:42:37.749Z,56.00
2018-09-25T12:45:11.703Z,57.00
2018-09-25T12:47:45.629Z,58.10
2018-09-25T12:50:19.659Z,57.00
2018-09-25T12:52:54.505Z,55.50
2018-09-25T12:55:28.913Z,55.90
2018-09-25T12:58:02.908Z,55.40
2018-09-25T13:00:36.766Z,56.10
2018-09-25T13:03:11.881Z,55.60
2018-09-25T13:05:46.125Z,54.60
2018-09-25T13:08:20.308Z,54.70
2018-09-25T13:10:54.274Z,53.40
2018-09-25T13:13:28.361Z,53.10
2018-09-25T13:16:02.468Z,52.70
2018-09-25T13:18:36.492Z,52.10
2018-09-25T13:21:10.434Z,52.00
2018-09-25T13:23:45.576Z,53.10
2018-09-25T13:26:19.945Z,54.50
2018-09-25T13:28:53.974Z,52.30
2018-09-25T13:31:28.047Z,52.50
2018-09-25T13:34:02.788Z,53.50
2018-09-25T13:36:36.988Z,53.80
2018-09-25T13:39:13.317Z,53.30
2018-09-25T13:41:48.242Z,52.90
2018-09-25T13:44:22.351Z,52.80
2018-09-25T13:46:56.219Z,52.80
2018-09-25T13:49:30.077Z,52.80
2018-09-25T13:52:04.248Z,53.00
2018-09-25T13:54:38.949Z,52.10
2018-09-25T13:57:14.332Z,52.60
2018-09-25T13:59:48.592Z,52.20
2018-09-25T14:02:22.619Z,51.50
2018-09-25T14:04:57.806Z,51.70
2018-09-25T14:07:31.733Z,52.30
2018-09-25T14:10:06.055Z,52.90
2018-09-25T14:12:40.020Z,54.00
2018-09-25T14:15:14.612Z,54.90
2018-09-25T14:17:48.805Z,54.60
2018-09-25T14:20:23.289Z,54.30
2018-09-25T14:22:57.276Z,54.60
2018-09-25T14:25:31.545Z,54.20
2018-09-25T14:28:05.576Z,55.10
2018-09-25T14:30:39.960Z,55.00
2018-09-25T14:33:14.982Z,54.90
2018-09-25T14:35:49.980Z,55.50
2018-09-25T14:38:23.772Z,54.70
2018-09-25T14:40:58.005Z,53.80
2018-09-25T14:43:31.897Z,54.00
2018-09-25T14:46:07.847Z,53.40
2018-09-25T14:48:42.112Z,52.60
2018-09-25T14:51:16.520Z,52.10
2018-09-25T14:53:50.756Z,50.80
2018-09-25T14:56:25.653Z,51.30
2018-09-25T14:59:00.074Z,51.90
2018-09-25T15:01:33.934Z,52.30
2018-09-25T15:04:08.199Z,50.10
2018-09-25T15:06:43.853Z,51.70
2018-09-25T15:09:18.118Z,51.60
2018-09-25T15:11:52.053Z,51.00
2018-09-25T15:14:25.943Z,51.80
2018-09-25T15:17:00.936Z,52.60
2018-09-25T15:19:34.929Z,51.70
2018-09-25T15:22:09.287Z,52.40
2018-09-25T15:24:43.417Z,52.80
2018-09-25T15:27:17.950Z,52.40
2018-09-25T15:29:51.968Z,51.90
2018-09-25T15:32:26.548Z,51.20
2018-09-25T15:35:01.288Z,50.90
2018-09-25T15:37:36.027Z,51.30
2018-09-25T15:40:10.401Z,51.70
2018-09-25T15:42:44.402Z,53.00
2018-09-25T15:45:18.333Z,53.50
2018-09-25T15:47:53.325Z,54.50
2018-09-25T15:50:27.297Z,55.20
2018-09-25T15:53:02.081Z,55.20
2018-09-25T15:55:36.690Z,55.70
2018-09-25T15:58:11.788Z,55.90
2018-09-25T16:00:45.784Z,55.70
2018-09-25T16:03:19.708Z,55.90
2018-09-25T16:05:53.917Z,56.60
2018-09-25T16:08:28.592Z,55.80
2018-09-25T16:11:02.883Z,56.30
2018-09-25T16:13:36.957Z,56.90
2018-09-25T16:16:11.032Z,56.10
2018-09-25T16:18:46.325Z,56.70
2018-09-25T16:21:20.324Z,57.10
2018-09-25T16:23:55.170Z,57.40
2018-09-25T16:26:29.391Z,57.60
2018-09-25T16:29:04.061Z,57.80
2018-09-25T16:31:38.736Z,58.60
2018-09-25T16:34:13.072Z,58.50
2018-09-25T16:36:47.298Z,59.00
2018-09-25T16:39:21.620Z,58.90
2018-09-25T16:41:55.473Z,59.10
2018-09-25T16:44:29.567Z,59.40
2018-09-25T16:47:03.941Z,59.60
2018-09-25T16:49:39.176Z,60.00
2018-09-25T16:52:13.793Z,60.30
2018-09-25T16:54:47.917Z,60.50
2018-09-25T16:57:22.339Z,60.90
2018-09-25T16:59:57.781Z,61.10
2018-09-25T17:02:32.221Z,61.40
2018-09-25T17:05:06.065Z,61.60
2018-09-25T17:07:40.541Z,62.00
2018-09-25T17:10:15.169Z,62.20
2018-09-25T17:12:49.457Z,62.50
2018-09-25T17:15:24.233Z,62.90
2018-09-25T17:17:58.948Z,63.30
2018-09-25T17:20:33.766Z,63.70
2018-09-25T17:23:08.589Z,64.60
2018-09-25T17:25:42.817Z,64.60
2018-09-25T17:28:16.711Z,64.90
2018-09-25T17:30:51.402Z,65.40
2018-09-25T17:33:25.282Z,65.90
2018-09-25T17:35:59.859Z,66.10
2018-09-25T17:38:34.177Z,66.20
2018-09-25T17:41:08.422Z,66.70
2018-09-25T17:43:42.341Z,67.50
2018-09-25T17:46:16.695Z,67.60
2018-09-25T17:48:51.286Z,68.00
2018-09-25T17:51:26.100Z,68.80
2018-09-25T17:53:59.979Z,69.70
2018-09-25T17:56:33.922Z,70.30
2018-09-25T18:02:02.978Z,72.20
2018-09-25T18:04:37.368Z,72.70
2018-09-25T18:07:12.634Z,73.20
2018-09-25T18:09:46.819Z,73.50
2018-09-25T18:12:25.866Z,74.80
2018-09-25T18:15:03.750Z,75.80
2018-09-25T18:17:37.811Z,76.30
2018-09-25T18:20:11.811Z,77.30
2018-09-25T18:22:48.715Z,77.30
2018-09-25T18:25:23.727Z,77.90
2018-09-25T18:27:57.773Z,78.60
2018-09-25T18:30:32.413Z,78.90
2018-09-25T18:33:07.208Z,79.80
2018-09-25T18:35:41.449Z,80.80
2018-09-25T18:38:16.145Z,80.70
2018-09-25T18:40:51.490Z,81.80
2018-09-25T18:43:26.088Z,84.00
2018-09-25T18:46:00.389Z,84.90
2018-09-25T18:48:34.467Z,85.00
2018-09-25T18:51:20.401Z,87.00
2018-09-25T18:53:54.369Z,86.80
2018-09-25T18:56:29.395Z,89.10
2018-09-25T18:59:03.312Z,90.10
2018-09-25T19:01:37.883Z,91.00
2018-09-25T19:04:12.208Z,91.90
2018-09-25T19:06:48.242Z,92.30
2018-09-25T19:09:25.452Z,92.70
2018-09-25T19:12:00.265Z,93.30
2018-09-25T19:14:34.572Z,93.80
2018-09-25T19:17:08.704Z,94.50
2018-09-25T19:19:43.311Z,94.90
2018-09-25T19:22:17.257Z,95.80
2018-09-25T19:24:51.291Z,96.40
2018-09-25T19:27:25.621Z,96.70
2018-09-25T19:30:00.730Z,97.50
2018-09-25T19:32:35.142Z,98.20
2018-09-25T19:35:09.409Z,98.90
2018-09-25T19:37:43.885Z,99.10
2018-09-25T19:40:18.735Z,99.30
2018-09-25T19:42:53.304Z,99.40
2018-09-25T19:45:27.292Z,99.90
2018-09-25T19:48:02.722Z,99.90
2018-09-25T19:50:36.831Z,99.90
2018-09-25T19:53:11.975Z,99.90
2018-09-25T19:55:46.352Z,99.90
2018-09-25T19:58:20.925Z,99.90
2018-09-25T20:00:56.185Z,99.90
2018-09-25T20:03:32.637Z,99.90
2018-09-25T20:06:06.572Z,99.90
2018-09-25T20:08:41.053Z,99.90
2018-09-25T20:11:15.163Z,99.90
2018-09-25T20:13:49.648Z,99.90
2018-09-25T20:16:24.086Z,99.90
2018-09-25T20:20:22.878Z,99.90
2018-09-25T20:22:57.695Z,99.90
2018-09-25T20:25:31.621Z,99.90
2018-09-25T20:28:06.143Z,99.90
2018-09-25T20:30:40.128Z,99.90
2018-09-25T20:33:15.165Z,99.90
2018-09-25T20:35:49.492Z,99.90
2018-09-25T20:38:23.384Z,99.90
2018-09-25T20:40:57.470Z,99.90
2018-09-25T20:43:31.887Z,99.90
2018-09-25T20:46:06.050Z,99.90
2018-09-25T20:48:40.064Z,99.90
2018-09-25T20:51:14.245Z,99.90
2018-09-25T21:07:08.017Z,99.90
2018-09-25T21:09:42.269Z,99.90
2018-09-25T21:12:16.870Z,99.90
2018-09-25T21:14:51.671Z,99.90
2018-09-25T21:17:26.223Z,99.90
2018-09-25T21:20:00.096Z,99.90
2018-09-25T21:22:34.800Z,99.90
2018-09-25T21:25:09.441Z,99.90
2018-09-25T21:27:44.103Z,99.90
2018-09-25T21:30:18.064Z,99.90
2018-09-25T21:32:52.093Z,99.90
2018-09-25T21:35:27.429Z,99.90
2018-09-25T21:38:03.262Z,99.90
2018-09-25T21:40:38.405Z,99.90
2018-09-25T21:43:12.307Z,99.90
2018-09-25T21:45:47.095Z,99.90
2018-09-25T21:48:21.357Z,99.90
2018-09-25T21:50:55.682Z,99.90
2018-09-25T21:53:29.936Z,99.90
2018-09-25T21:56:04.766Z,99.90
2018-09-25T21:58:39.145Z,99.90
2018-09-25T22:01:13.365Z,99.90
2018-09-25T22:03:47.197Z,99.90
2018-09-25T22:06:21.648Z,99.90
2018-09-25T22:08:55.979Z,99.90
2018-09-25T22:11:30.973Z,99.90
2018-09-25T22:14:04.985Z,99.90
2018-09-25T22:16:39.438Z,99.90
2018-09-25T22:19:13.436Z,99.90
2018-09-25T22:21:48.153Z,99.90
2018-09-25T22:24:22.565Z,99.90
2018-09-25T22:26:57.513Z,99.90
2018-09-25T22:29:31.792Z,99.90
2018-09-25T22:32:05.934Z,99.90
2018-09-25T22:34:39.983Z,99.90
2018-09-25T22:37:15.521Z,99.90
2018-09-25T22:39:49.460Z,99.90
2018-09-25T22:42:23.573Z,99.90
2018-09-25T22:44:57.543Z,99.90
2018-09-25T22:47:33.137Z,99.90
2018-09-25T22:50:07.192Z,99.90
2018-09-25T22:52:41.309Z,99.90
2018-09-25T22:55:15.564Z,99.90
2018-09-25T22:57:50.309Z,99.90
2018-09-25T23:00:24.677Z,99.90
2018-09-25T23:02:58.933Z,99.90
2018-09-25T23:05:33.187Z,99.90
2018-09-25T23:08:07.912Z,99.90
2018-09-25T23:10:42.448Z,99.90
2018-09-25T23:13:17.099Z,99.90
2018-09-25T23:15:51.379Z,99.90
2018-09-25T23:18:26.363Z,99.90
2018-09-25T23:21:00.953Z,99.90
2018-09-25T23:23:35.073Z,99.90
2018-09-25T23:26:09.493Z,99.90
2018-09-25T23:28:44.217Z,99.90
2018-09-25T23:31:18.060Z,99.90
2018-09-25T23:33:51.985Z,99.90
2018-09-25T23:36:26.077Z,99.90
2018-09-25T23:38:59.487Z,99.90
2018-09-25T23:41:32.616Z,99.90
2018-09-25T23:44:05.696Z,99.90
2018-09-25T23:46:39.600Z,99.90
2018-09-25T23:49:14.244Z,99.90
2018-09-25T23:51:52.792Z,99.90
2018-09-25T23:54:29.136Z,99.90
2018-09-25T23:57:03.047Z,99.90
2018-09-25T23:59:38.575Z,99.90
